Time;durP1;ratioP1;P1;durP2;ratioP2;P2;SDS_P1;SDS_P2;PMS_P1;PMS_P2;Temp;Humidity;BMP_temperature;BMP_pressure;BME280_temperature;BME280_humidity;BME280_pressure;Samples;Min_cycle;Max_cycle;Signal;HPM_P1;HPM_P2
2023/05/30 00:00:58;;;;;;;22.23;2.15;;;10.90;99.90;;;;;;4994989;28;20022;-67
2023/05/30 00:03:24;;;;;;;6.45;1.63;;;10.80;99.90;;;;;;4995540;28;20068;-66
2023/05/30 00:05:50;;;;;;;5.88;1.65;;;10.80;99.90;;;;;;4994313;28;20514;-66
2023/05/30 00:08:16;;;;;;;10.48;1.80;;;10.90;99.90;;;;;;4994505;28;20066;-66
2023/05/30 00:10:42;;;;;;;6.13;2.83;;;10.90;99.90;;;;;;5008921;28;20395;-66
2023/05/30 00:13:07;;;;;;;9.13;1.60;;;10.90;99.90;;;;;;4993119;28;20026;-67
2023/05/30 00:15:33;;;;;;;11.07;2.50;;;10.90;99.90;;;;;;4994203;28;20441;-67
2023/05/30 00:18:00;;;;;;;19.60;2.58;;;10.90;99.90;;;;;;4994032;28;20057;-67
2023/05/30 00:20:29;;;;;;;11.23;2.08;;;10.90;99.90;;;;;;4994075;28;20482;-66
2023/05/30 00:22:58;;;;;;;14.30;2.30;;;10.80;99.90;;;;;;4993778;28;20022;-66
2023/05/30 00:25:24;;;;;;;8.30;2.05;;;10.80;99.90;;;;;;4993922;28;20037;-66
2023/05/30 00:27:50;;;;;;;8.35;1.92;;;10.80;99.90;;;;;;4994209;28;20052;-68
2023/05/30 00:30:15;;;;;;;17.92;2.05;;;10.90;99.90;;;;;;4994397;28;20468;-66
2023/05/30 00:32:41;;;;;;;14.38;2.65;;;10.90;99.90;;;;;;4994598;28;20066;-66
2023/05/30 00:35:07;;;;;;;9.00;2.03;;;10.80;99.90;;;;;;4993501;28;20037;-67
2023/05/30 00:37:33;;;;;;;9.93;2.80;;;10.80;99.90;;;;;;4994386;28;20082;-66
2023/05/30 00:39:58;;;;;;;17.08;2.38;;;10.90;99.90;;;;;;4993578;28;20034;-66
2023/05/30 00:42:27;;;;;;;12.07;2.00;;;10.90;99.90;;;;;;4994470;28;20022;-66
2023/05/30 00:44:52;;;;;;;12.98;2.28;;;10.80;99.90;;;;;;4994429;28;20022;-67
2023/05/30 00:47:18;;;;;;;9.77;2.40;;;10.80;99.90;;;;;;4994362;28;20026;-67
2023/05/30 00:49:45;;;;;;;6.43;1.63;;;10.90;99.90;;;;;;4993445;28;20023;-67
2023/05/30 00:52:11;;;;;;;7.47;3.00;;;10.90;99.90;;;;;;4994352;28;20081;-66
2023/05/30 00:54:43;;;;;;;8.52;1.90;;;10.90;99.90;;;;;;4993287;28;20018;-66
2023/05/30 00:57:09;;;;;;;15.27;2.67;;;10.90;99.90;;;;;;4992581;28;20038;-66
2023/05/30 00:59:35;;;;;;;12.27;2.78;;;10.90;99.90;;;;;;4993935;28;20033;-66
2023/05/30 01:02:01;;;;;;;12.35;2.67;;;10.90;99.90;;;;;;4994126;28;20038;-68
2023/05/30 01:04:26;;;;;;;11.65;2.03;;;10.90;99.90;;;;;;4991672;28;20030;-67
2023/05/30 01:06:53;;;;;;;7.03;1.52;;;10.80;99.90;;;;;;4993934;28;20018;-66
2023/05/30 01:09:18;;;;;;;10.18;1.50;;;10.80;99.90;;;;;;4993156;28;20152;-66
2023/05/30 01:12:07;;;;;;;8.40;1.83;;;10.70;99.90;;;;;;4993888;28;20101;-67
2023/05/30 01:15:18;;;;;;;7.05;2.22;;;10.70;99.90;;;;;;4993990;28;20542;-67
2023/05/30 01:17:50;;;;;;;6.15;1.90;;;10.70;99.90;;;;;;4973012;28;20050;-67
2023/05/30 01:20:22;;;;;;;11.35;2.35;;;10.70;99.90;;;;;;4987573;28;20212;-66
2023/05/30 01:23:15;;;;;;;21.02;1.98;;;10.70;99.90;;;;;;4993693;28;20485;-67
2023/05/30 01:26:09;;;;;;;19.50;5.45;;;10.70;99.90;;;;;;4992921;28;20030;-67
2023/05/30 01:28:37;;;;;;;6.15;1.40;;;10.60;99.90;;;;;;4992827;28;20022;-66
2023/05/30 01:31:04;;;;;;;11.23;1.77;;;10.70;99.90;;;;;;4993810;28;20022;-66
2023/05/30 01:33:31;;;;;;;18.27;2.15;;;10.70;99.90;;;;;;4993765;28;20026;-66
2023/05/30 01:35:57;;;;;;;6.53;1.85;;;10.70;99.90;;;;;;4992868;28;20082;-67
2023/05/30 01:38:23;;;;;;;9.60;1.60;;;10.70;99.90;;;;;;4993306;28;20081;-67
2023/05/30 01:40:52;;;;;;;9.43;2.13;;;10.70;99.90;;;;;;4991470;28;20058;-68
2023/05/30 01:43:36;;;;;;;10.93;2.92;;;10.60;99.90;;;;;;5008633;28;20030;-66
2023/05/30 01:46:05;;;;;;;3.72;1.40;;;10.70;99.90;;;;;;4992712;28;20030;-67
2023/05/30 01:48:42;;;;;;;12.13;2.10;;;10.70;99.90;;;;;;4993544;28;20034;-66
2023/05/30 01:51:14;;;;;;;12.33;2.03;;;10.70;99.90;;;;;;4991474;28;20652;-66
2023/05/30 01:53:47;;;;;;;12.65;2.15;;;10.70;99.90;;;;;;4993558;28;20651;-66
2023/05/30 01:56:16;;;;;;;7.82;1.85;;;10.70;99.90;;;;;;4993790;28;20030;-66
2023/05/30 01:58:42;;;;;;;;;;;10.60;99.90;;;;;;4991977;28;20057;-68
2023/05/30 02:01:08;;;;;;;9.10;2.38;;;10.60;99.90;;;;;;4993422;28;20271;-66
2023/05/30 02:03:34;;;;;;;8.75;2.45;;;10.60;99.90;;;;;;4992446;28;20081;-68
2023/05/30 02:06:00;;;;;;;7.60;2.28;;;10.60;99.90;;;;;;4992167;28;20026;-68
2023/05/30 02:08:27;;;;;;;10.85;1.80;;;10.60;99.90;;;;;;4991733;28;20454;-66
2023/05/30 02:10:52;;;;;;;7.35;1.90;;;10.60;99.90;;;;;;4993148;28;20022;-66
2023/05/30 02:13:18;;;;;;;10.02;2.15;;;10.60;99.90;;;;;;4954940;28;20043;-66
2023/05/30 02:15:44;;;;;;;7.20;1.88;;;10.60;99.90;;;;;;4973889;28;20415;-66
2023/05/30 02:18:10;;;;;;;5.47;1.65;;;10.50;99.90;;;;;;4977327;28;20037;-67
2023/05/30 02:20:37;;;;;;;7.55;1.75;;;10.50;99.90;;;;;;4991616;28;20057;-67
2023/05/30 02:23:02;;;;;;;11.43;2.00;;;10.50;99.90;;;;;;4993254;28;20488;-66
2023/05/30 02:25:28;;;;;;;19.13;3.15;;;10.50;99.90;;;;;;4993223;28;20054;-66
2023/05/30 02:27:54;;;;;;;7.95;3.03;;;10.50;99.90;;;;;;4992260;28;20027;-66
2023/05/30 02:30:20;;;;;;;11.00;2.03;;;10.50;99.90;;;;;;4991820;28;20030;-66
2023/05/30 02:32:46;;;;;;;9.65;1.95;;;10.50;99.90;;;;;;4992462;28;20062;-67
2023/05/30 02:35:12;;;;;;;8.00;1.95;;;10.50;99.90;;;;;;4995558;28;20042;-66
2023/05/30 02:37:39;;;;;;;11.60;2.25;;;10.50;99.90;;;;;;4992736;28;20066;-67
2023/05/30 02:40:09;;;;;;;17.33;2.47;;;10.60;99.90;;;;;;4995524;28;20505;-66
2023/05/30 02:42:35;;;;;;;5.70;2.65;;;10.60;99.90;;;;;;4996669;28;20266;-66
2023/05/30 02:45:01;;;;;;;8.60;2.08;;;10.60;99.90;;;;;;4996685;28;20037;-66
2023/05/30 02:47:27;;;;;;;5.65;1.67;;;10.60;99.90;;;;;;4995663;28;20019;-66
2023/05/30 02:49:52;;;;;;;4.47;1.42;;;10.60;99.90;;;;;;4996678;28;20146;-67
2023/05/30 02:52:19;;;;;;;7.40;1.63;;;10.60;99.90;;;;;;4996572;28;20030;-65
2023/05/30 02:54:46;;;;;;;16.77;2.53;;;10.60;99.90;;;;;;4995484;28;20076;-66
2023/05/30 02:57:12;;;;;;;12.13;2.30;;;10.60;99.90;;;;;;4995360;28;20023;-65
2023/05/30 02:59:38;;;;;;;3.28;1.77;;;10.70;99.90;;;;;;4996447;28;20026;-68
2023/05/30 03:02:04;;;;;;;10.98;2.45;;;10.70;99.90;;;;;;4995224;28;20037;-66
2023/05/30 03:04:29;;;;;;;7.65;2.03;;;10.70;99.90;;;;;;4996293;28;20041;-66
2023/05/30 03:06:55;;;;;;;13.48;2.42;;;10.70;99.90;;;;;;4995634;28;20026;-66
2023/05/30 03:09:22;;;;;;;20.58;3.72;;;10.70;99.90;;;;;;4996230;28;20022;-67
2023/05/30 03:11:48;;;;;;;20.07;2.17;;;10.70;99.90;;;;;;4996203;28;20439;-66
2023/05/30 03:14:15;;;;;;;15.00;2.70;;;10.80;99.90;;;;;;4995567;28;20077;-68
2023/05/30 03:16:40;;;;;;;9.15;2.00;;;10.80;99.90;;;;;;4995276;28;20088;-67
2023/05/30 03:19:06;;;;;;;6.95;2.10;;;10.80;99.90;;;;;;4995032;28;20479;-66
2023/05/30 03:21:34;;;;;;;8.50;2.15;;;10.90;99.90;;;;;;4996132;28;20069;-66
2023/05/30 03:23:59;;;;;;;11.00;1.73;;;10.90;99.90;;;;;;4995279;28;20106;-66
2023/05/30 03:26:25;;;;;;;8.00;2.28;;;10.90;99.90;;;;;;4995172;28;20113;-66
2023/05/30 03:28:51;;;;;;;6.38;2.60;;;10.90;99.90;;;;;;4995931;28;20023;-66
2023/05/30 03:31:18;;;;;;;14.55;2.45;;;10.90;99.90;;;;;;4995915;28;20030;-66
2023/05/30 03:33:44;;;;;;;10.50;2.85;;;10.90;99.90;;;;;;4994819;28;20072;-66
2023/05/30 03:36:13;;;;;;;8.48;2.03;;;10.90;99.90;;;;;;4994008;28;20041;-65
2023/05/30 03:38:39;;;;;;;11.48;2.10;;;10.90;99.90;;;;;;4995532;28;20411;-65
2023/05/30 03:41:05;;;;;;;4.05;1.85;;;10.90;99.90;;;;;;4993406;28;20018;-66
2023/05/30 03:43:30;;;;;;;11.15;2.42;;;10.90;99.90;;;;;;4988915;28;20120;-65
2023/05/30 03:45:56;;;;;;;9.50;2.17;;;11.00;99.90;;;;;;4995637;28;20023;-66
2023/05/30 03:48:21;;;;;;;8.55;2.05;;;10.90;99.90;;;;;;4994609;28;20088;-67
2023/05/30 03:50:47;;;;;;;14.52;3.45;;;11.00;99.90;;;;;;4995512;28;20026;-67
2023/05/30 03:53:13;;;;;;;6.70;1.98;;;11.00;99.90;;;;;;4994530;28;20073;-67
2023/05/30 03:55:39;;;;;;;5.97;2.42;;;10.90;99.90;;;;;;4994639;28;20125;-66
2023/05/30 03:58:04;;;;;;;7.38;1.80;;;10.90;99.90;;;;;;4995296;28;20030;-66
2023/05/30 04:00:30;;;;;;;8.50;1.83;;;10.90;99.90;;;;;;4994501;28;20038;-67
2023/05/30 04:02:59;;;;;;;5.95;1.80;;;10.90;99.90;;;;;;4994356;28;20109;-67
2023/05/30 04:05:27;;;;;;;6.47;2.38;;;10.90;99.90;;;;;;4995282;28;20015;-66
2023/05/30 04:07:53;;;;;;;6.70;2.22;;;11.00;99.90;;;;;;4995231;28;20033;-67
2023/05/30 04:10:18;;;;;;;6.78;2.10;;;11.00;99.90;;;;;;4994163;28;20030;-66
2023/05/30 04:12:44;;;;;;;8.27;2.40;;;11.00;99.90;;;;;;4995084;28;20438;-66
2023/05/30 04:15:10;;;;;;;9.00;2.70;;;11.00;99.90;;;;;;4993816;28;20026;-66
2023/05/30 04:17:36;;;;;;;9.35;2.72;;;11.00;99.90;;;;;;4993884;28;20037;-66
2023/05/30 04:20:04;;;;;;;6.47;3.15;;;11.10;99.90;;;;;;4993338;28;20026;-66
2023/05/30 04:22:30;;;;;;;11.15;2.00;;;11.20;99.90;;;;;;4994960;28;20105;-67
2023/05/30 04:24:56;;;;;;;5.45;2.15;;;11.20;99.90;;;;;;4993847;28;20106;-67
2023/05/30 04:27:24;;;;;;;10.23;2.20;;;11.30;99.90;;;;;;4993169;28;20037;-66
2023/05/30 04:29:50;;;;;;;16.00;2.60;;;11.30;99.90;;;;;;4994781;28;20021;-67
2023/05/30 04:32:16;;;;;;;7.18;2.25;;;11.30;99.90;;;;;;4993928;28;20117;-67
2023/05/30 04:34:43;;;;;;;6.95;2.65;;;11.30;99.90;;;;;;4994769;28;20097;-67
2023/05/30 04:37:10;;;;;;;4.13;2.77;;;11.30;99.90;;;;;;4994816;28;20042;-66
2023/05/30 04:39:36;;;;;;;6.07;2.65;;;11.40;99.90;;;;;;4994550;28;20031;-66
2023/05/30 04:42:04;;;;;;;8.65;2.70;;;11.40;99.90;;;;;;4992775;28;20030;-67
2023/05/30 04:44:37;;;;;;;10.32;2.33;;;11.50;99.90;;;;;;4994339;28;20546;-67
2023/05/30 04:47:07;;;;;;;8.48;2.50;;;11.50;99.90;;;;;;4999087;28;20538;-67
2023/05/30 04:49:33;;;;;;;9.40;2.75;;;11.50;99.90;;;;;;4997864;28;20116;-66
2023/05/30 04:52:00;;;;;;;2.97;2.20;;;11.60;99.90;;;;;;4992626;28;20030;-67
2023/05/30 04:54:27;;;;;;;8.32;2.85;;;11.60;99.90;;;;;;4993042;28;20117;-66
2023/05/30 04:56:52;;;;;;;21.23;2.85;;;11.70;99.90;;;;;;4993703;28;20372;-67
2023/05/30 04:59:18;;;;;;;8.88;2.67;;;11.70;99.90;;;;;;4994196;28;20041;-68
2023/05/30 05:01:44;;;;;;;20.98;3.33;;;11.70;99.90;;;;;;4994268;28;20471;-67
2023/05/30 05:04:10;;;;;;;9.35;2.33;;;11.70;99.90;;;;;;4994107;28;20027;-67
2023/05/30 05:06:36;;;;;;;7.07;3.10;;;11.80;99.90;;;;;;4993709;28;20022;-67
2023/05/30 05:09:02;;;;;;;12.68;2.13;;;11.80;99.90;;;;;;4994057;28;20033;-66
2023/05/30 05:11:27;;;;;;;8.63;2.50;;;11.90;99.90;;;;;;4993955;28;20031;-67
2023/05/30 05:13:53;;;;;;;7.13;2.30;;;11.80;99.90;;;;;;4994038;28;20080;-67
2023/05/30 05:16:18;;;;;;;12.25;1.77;;;11.90;99.90;;;;;;4993980;28;20467;-66
2023/05/30 05:18:44;;;;;;;10.82;3.17;;;12.00;99.90;;;;;;4992649;28;20062;-67
2023/05/30 05:21:10;;;;;;;9.80;2.60;;;12.00;99.90;;;;;;4993901;28;20018;-67
2023/05/30 05:23:35;;;;;;;12.50;2.42;;;11.90;99.90;;;;;;4993433;28;20058;-66
2023/05/30 05:26:01;;;;;;;9.07;2.50;;;11.90;99.90;;;;;;4993836;28;20065;-66
2023/05/30 05:28:27;;;;;;;5.65;2.38;;;11.80;99.90;;;;;;4992204;28;20041;-67
2023/05/30 05:30:53;;;;;;;3.42;1.65;;;11.90;99.90;;;;;;4993721;28;20113;-66
2023/05/30 05:33:19;;;;;;;5.85;2.33;;;11.90;99.90;;;;;;4993792;28;20022;-66
2023/05/30 05:35:46;;;;;;;13.18;2.22;;;12.00;99.90;;;;;;4993692;28;20467;-67
2023/05/30 05:38:12;;;;;;;12.32;2.08;;;12.00;99.90;;;;;;4992178;28;20402;-67
2023/05/30 05:40:38;;;;;;;6.88;2.72;;;12.00;99.90;;;;;;4991413;28;20022;-66
2023/05/30 05:43:03;;;;;;;3.38;2.00;;;12.10;99.90;;;;;;4982227;28;20053;-67
2023/05/30 05:45:29;;;;;;;8.93;2.10;;;12.20;99.90;;;;;;4993325;28;20022;-67
2023/05/30 05:47:54;;;;;;;4.88;2.10;;;12.30;99.90;;;;;;4993101;28;20037;-68
2023/05/30 05:50:20;;;;;;;6.03;1.85;;;12.30;99.90;;;;;;4993459;28;20034;-68
2023/05/30 05:52:46;;;;;;;3.13;2.03;;;12.40;99.90;;;;;;4993573;28;20027;-66
2023/05/30 05:55:11;;;;;;;2.97;2.50;;;12.50;99.90;;;;;;4993174;28;20023;-67
2023/05/30 05:57:37;;;;;;;13.38;2.55;;;12.50;99.90;;;;;;4984480;28;20550;-67
2023/05/30 06:00:05;;;;;;;9.13;1.70;;;12.50;99.90;;;;;;4992504;28;20598;-66
2023/05/30 06:02:31;;;;;;;7.00;2.42;;;12.50;99.90;;;;;;4993217;28;20471;-66
2023/05/30 06:04:57;;;;;;;6.97;2.10;;;12.50;99.90;;;;;;4993407;28;20021;-66
2023/05/30 06:07:23;;;;;;;5.95;1.98;;;12.50;99.90;;;;;;4994582;28;20031;-67
2023/05/30 06:09:49;;;;;;;14.82;2.30;;;12.60;99.90;;;;;;4997365;28;20019;-66
2023/05/30 06:12:15;;;;;;;13.00;2.25;;;12.60;99.90;;;;;;4996806;28;20030;-66
2023/05/30 06:14:41;;;;;;;17.48;2.67;;;12.70;99.90;;;;;;4996550;28;20117;-66
2023/05/30 06:17:07;;;;;;;17.08;2.58;;;12.90;99.90;;;;;;4997191;28;20432;-66
2023/05/30 06:19:33;;;;;;;12.40;2.05;;;13.00;99.90;;;;;;4984900;28;20026;-66
2023/05/30 06:21:58;;;;;;;13.10;2.35;;;13.10;99.90;;;;;;4977660;28;20074;-66
2023/05/30 06:24:24;;;;;;;12.48;3.28;;;13.20;99.90;;;;;;4985005;28;20018;-66
2023/05/30 06:26:50;;;;;;;9.48;2.50;;;13.10;99.90;;;;;;4997022;28;20438;-65
2023/05/30 06:29:15;;;;;;;8.35;2.03;;;13.10;99.90;;;;;;4994892;28;20026;-66
2023/05/30 06:31:41;;;;;;;12.52;2.53;;;13.10;99.90;;;;;;4994833;28;20507;-67
2023/05/30 06:34:06;;;;;;;13.40;2.65;;;13.20;99.90;;;;;;4995170;28;20532;-68
2023/05/30 06:36:32;;;;;;;4.80;1.75;;;13.30;99.90;;;;;;4996906;28;20059;-67
2023/05/30 06:38:58;;;;;;;16.05;2.65;;;13.20;99.90;;;;;;4995581;28;20100;-67
2023/05/30 06:41:24;;;;;;;9.00;2.28;;;13.20;99.90;;;;;;4994493;28;20014;-68
2023/05/30 06:43:49;;;;;;;9.75;2.08;;;13.40;99.90;;;;;;4995849;28;20038;-72
2023/05/30 06:46:16;;;;;;;14.13;2.85;;;13.70;99.90;;;;;;4996687;28;20034;-70
2023/05/30 06:48:41;;;;;;;7.20;2.25;;;13.80;99.90;;;;;;4994708;28;20153;-67
2023/05/30 06:51:07;;;;;;;7.68;2.50;;;13.80;99.90;;;;;;4993222;28;20454;-69
2023/05/30 06:53:34;;;;;;;6.95;1.88;;;13.70;99.90;;;;;;5000025;28;20119;-69
2023/05/30 06:55:59;;;;;;;12.40;2.53;;;13.90;99.90;;;;;;5001913;28;20518;-68
2023/05/30 06:58:25;;;;;;;10.23;2.53;;;14.10;99.90;;;;;;4994621;28;20030;-69
2023/05/30 07:00:51;;;;;;;5.50;2.28;;;14.30;99.90;;;;;;4996982;28;20368;-69
2023/05/30 07:03:17;;;;;;;15.77;2.38;;;14.50;99.90;;;;;;4992217;28;20069;-70
2023/05/30 07:05:43;;;;;;;7.25;1.85;;;14.50;99.90;;;;;;4979679;28;20058;-69
2023/05/30 07:08:09;;;;;;;5.47;1.88;;;14.40;99.90;;;;;;4990686;28;20030;-69
2023/05/30 07:10:35;;;;;;;11.10;1.77;;;14.40;99.90;;;;;;4996253;28;20573;-69
2023/05/30 07:13:01;;;;;;;8.88;1.90;;;14.50;99.90;;;;;;4991221;28;20023;-69
2023/05/30 07:15:28;;;;;;;17.52;2.58;;;14.30;99.90;;;;;;4993462;28;20445;-69
2023/05/30 07:17:53;;;;;;;11.93;2.42;;;14.30;99.90;;;;;;4993794;28;20395;-70
2023/05/30 07:20:22;;;;;;;7.07;2.00;;;14.20;99.90;;;;;;4988442;28;20023;-68
2023/05/30 07:22:49;;;;;;;11.68;2.58;;;14.00;99.90;;;;;;4991551;28;20022;-69
2023/05/30 07:25:14;;;;;;;10.85;2.13;;;13.90;99.90;;;;;;5003454;28;20524;-69
2023/05/30 07:27:40;;;;;;;11.80;2.35;;;13.90;99.90;;;;;;4986039;28;20063;-69
2023/05/30 07:30:06;;;;;;;9.35;2.78;;;13.90;99.90;;;;;;4992247;28;20026;-71
2023/05/30 07:32:32;;;;;;;8.15;2.53;;;14.40;99.90;;;;;;4994197;28;20030;-71
2023/05/30 07:34:57;;;;;;;12.07;2.25;;;14.50;99.90;;;;;;4999083;28;20022;-68
2023/05/30 07:37:23;;;;;;;8.20;2.13;;;15.10;99.90;;;;;;4995360;28;20053;-68
2023/05/30 07:39:49;;;;;;;6.28;2.40;;;15.70;99.90;;;;;;4987314;28;20023;-71
2023/05/30 07:42:14;;;;;;;12.40;2.17;;;16.20;99.90;;;;;;4995233;28;20549;-69
2023/05/30 07:44:40;;;;;;;5.07;1.90;;;16.20;99.90;;;;;;4995560;28;20056;-69
2023/05/30 07:47:06;;;;;;;5.18;1.65;;;15.90;99.90;;;;;;4995567;28;20076;-70
2023/05/30 07:49:33;;;;;;;6.57;2.97;;;15.50;99.90;;;;;;4994272;28;20034;-69
2023/05/30 07:51:59;;;;;;;8.27;1.83;;;15.30;99.90;;;;;;5000542;28;20037;-69
2023/05/30 07:54:24;;;;;;;7.50;3.17;;;15.30;99.90;;;;;;4995347;28;20030;-70
2023/05/30 07:56:51;;;;;;;6.10;2.25;;;15.30;99.90;;;;;;4977786;28;20443;-69
2023/05/30 07:59:16;;;;;;;9.50;2.40;;;15.40;99.90;;;;;;4995323;28;20030;-70
2023/05/30 08:01:42;;;;;;;6.63;2.42;;;15.60;99.90;;;;;;4995302;28;20084;-68
2023/05/30 08:04:07;;;;;;;10.43;2.70;;;15.80;99.90;;;;;;4995314;28;20438;-70
2023/05/30 08:06:36;;;;;;;6.07;2.35;;;15.70;99.90;;;;;;4995256;28;20027;-70
2023/05/30 08:09:02;;;;;;;8.77;2.67;;;15.50;99.90;;;;;;4995015;28;20026;-70
2023/05/30 08:11:27;;;;;;;10.05;2.67;;;15.60;99.90;;;;;;4995158;28;20030;-70
2023/05/30 08:13:53;;;;;;;9.75;3.83;;;15.90;99.90;;;;;;4994029;28;20038;-71
2023/05/30 08:16:20;;;;;;;6.35;1.90;;;16.10;99.90;;;;;;4995088;28;20041;-71
2023/05/30 08:18:45;;;;;;;10.73;1.97;;;15.90;99.90;;;;;;4995019;28;20026;-69
2023/05/30 08:21:12;;;;;;;6.85;2.13;;;15.90;99.90;;;;;;4994962;28;20551;-69
2023/05/30 08:23:38;;;;;;;4.13;1.75;;;16.00;99.90;;;;;;4994937;28;20031;-69
2023/05/30 08:26:06;;;;;;;5.82;2.15;;;16.20;99.90;;;;;;4994886;28;20027;-71
2023/05/30 08:28:32;;;;;;;9.00;2.53;;;16.40;99.90;;;;;;4993773;28;20022;-70
2023/05/30 08:30:58;;;;;;;8.82;3.05;;;16.80;99.90;;;;;;4989359;28;20023;-69
2023/05/30 08:33:25;;;;;;;9.65;3.00;;;16.80;99.90;;;;;;4994567;28;20431;-69
2023/05/30 08:35:51;;;;;;;12.63;1.77;;;16.60;99.90;;;;;;4994360;28;20380;-70
2023/05/30 08:38:16;;;;;;;12.95;1.98;;;16.50;99.90;;;;;;4993732;28;20046;-70
2023/05/30 08:40:43;;;;;;;6.18;2.22;;;16.60;99.90;;;;;;4994035;28;20033;-70
2023/05/30 08:43:09;;;;;;;8.85;2.25;;;16.70;99.90;;;;;;4994458;28;20060;-70
2023/05/30 08:45:36;;;;;;;4.90;2.10;;;16.60;99.90;;;;;;4994441;28;20030;-68
2023/05/30 08:48:02;;;;;;;8.85;2.60;;;16.70;99.90;;;;;;4993391;28;20117;-68
2023/05/30 08:50:30;;;;;;;5.70;1.67;;;16.70;99.90;;;;;;4994341;28;20030;-67
2023/05/30 08:53:08;;;;;;;9.80;3.88;;;16.70;99.90;;;;;;5009296;28;20031;-71
2023/05/30 08:55:40;;;;;;;7.40;1.90;;;16.80;99.90;;;;;;4993116;28;20394;-70
2023/05/30 08:58:29;;;;;;;9.75;2.10;;;17.20;99.90;;;;;;5009231;28;20121;-68
2023/05/30 09:00:55;;;;;;;8.93;2.47;;;17.30;99.90;;;;;;4989538;28;20026;-67
2023/05/30 09:03:22;;;;;;;8.40;3.95;;;17.30;99.90;;;;;;4989319;28;20022;-67
2023/05/30 09:05:49;;;;;;;8.40;1.77;;;17.40;99.90;;;;;;4992412;28;20018;-67
2023/05/30 09:08:16;;;;;;;10.82;1.85;;;17.50;99.90;;;;;;4983258;28;20105;-70
2023/05/30 09:10:48;;;;;;;;;;;18.10;99.90;;;;;;4990134;28;20109;-67
2023/05/30 09:13:15;;;;;;;12.93;2.10;;;18.20;99.90;;;;;;4993512;28;19980;-68
2023/05/30 09:15:40;;;;;;;4.75;2.33;;;18.10;99.90;;;;;;4991839;28;20045;-68
2023/05/30 09:18:06;;;;;;;10.23;1.95;;;18.00;99.90;;;;;;4993291;28;20030;-68
2023/05/30 09:20:32;;;;;;;6.88;1.80;;;18.00;99.90;;;;;;4988426;28;20080;-67
2023/05/30 09:22:58;;;;;;;6.38;2.45;;;17.80;99.90;;;;;;4992519;28;20026;-66
2023/05/30 09:25:24;;;;;;;12.48;2.38;;;17.70;99.90;;;;;;4993623;28;20034;-67
2023/05/30 09:27:51;;;;;;;13.85;2.22;;;17.80;99.90;;;;;;5008242;28;20038;-67
2023/05/30 09:30:17;;;;;;;4.53;1.77;;;17.60;99.90;;;;;;4993405;28;20031;-68
2023/05/30 09:32:58;;;;;;;7.00;2.05;;;17.40;99.90;;;;;;4993299;28;20491;-68
2023/05/30 09:35:25;;;;;;;6.50;2.33;;;17.30;99.90;;;;;;4993262;28;20026;-68
2023/05/30 09:37:51;;;;;;;7.40;1.77;;;17.40;99.90;;;;;;4992771;28;20061;-67
2023/05/30 09:40:17;;;;;;;5.75;1.63;;;17.40;99.90;;;;;;4993425;28;20022;-68
2023/05/30 09:42:47;;;;;;;4.50;1.80;;;17.30;99.90;;;;;;4993305;28;20022;-67
2023/05/30 09:45:14;;;;;;;7.43;2.13;;;17.20;99.90;;;;;;4992961;28;20041;-67
2023/05/30 09:47:42;;;;;;;3.28;1.80;;;17.00;99.90;;;;;;4993024;28;20027;-67
2023/05/30 09:50:09;;;;;;;16.80;3.75;;;16.90;99.90;;;;;;4993243;28;20030;-67
2023/05/30 09:52:36;;;;;;;13.37;2.33;;;16.70;99.90;;;;;;4991981;28;20019;-67
2023/05/30 09:55:05;;;;;;;7.03;2.20;;;16.80;99.90;;;;;;5007157;28;20805;-67
2023/05/30 09:57:33;;;;;;;12.90;2.40;;;16.60;99.90;;;;;;4993425;28;20387;-66
2023/05/30 09:59:59;;;;;;;5.82;2.63;;;16.70;99.90;;;;;;4993122;28;20018;-66
2023/05/30 10:02:25;;;;;;;5.10;2.17;;;16.90;99.90;;;;;;4992923;28;20456;-67
2023/05/30 10:04:53;;;;;;;4.75;2.03;;;17.00;99.90;;;;;;4992940;28;20106;-66
2023/05/30 10:07:22;;;;;;;5.10;1.60;;;17.10;99.90;;;;;;4993183;28;20027;-66
2023/05/30 10:09:50;;;;;;;6.43;1.80;;;17.40;99.90;;;;;;4992873;28;20387;-68
2023/05/30 10:12:15;;;;;;;;;;;17.50;99.90;;;;;;4980905;28;20034;-67
2023/05/30 10:14:41;;;;;;;4.18;1.73;;;17.90;99.90;;;;;;4991262;28;19910;-67
2023/05/30 10:17:08;;;;;;;10.60;2.15;;;18.00;99.90;;;;;;5008106;28;20033;-67
2023/05/30 10:19:42;;;;;;;10.95;2.30;;;18.20;99.90;;;;;;5007983;28;20463;-66
2023/05/30 10:22:08;;;;;;;5.07;1.98;;;18.30;99.90;;;;;;4992492;28;20062;-67
2023/05/30 10:24:34;;;;;;;7.05;1.63;;;18.30;99.90;;;;;;4993225;28;20023;-67
2023/05/30 10:27:05;;;;;;;7.03;1.80;;;17.70;99.90;;;;;;5006049;28;20030;-67
2023/05/30 10:29:36;;;;;;;5.25;1.77;;;17.60;99.90;;;;;;4989352;28;20054;-68
2023/05/30 10:32:05;;;;;;;8.98;1.80;;;17.70;99.90;;;;;;4992648;28;20030;-66
2023/05/30 10:34:39;;;;;;;4.50;1.80;;;17.70;99.90;;;;;;4992977;28;20034;-70
2023/05/30 10:37:05;;;;;;;9.60;1.88;;;17.70;99.90;;;;;;4992387;28;20066;-67
2023/05/30 10:39:56;;;;;;;6.28;2.15;;;17.90;99.90;;;;;;4993049;28;20121;-68
2023/05/30 10:42:50;;;;;;;14.32;3.28;;;18.10;99.90;;;;;;4990660;28;20054;-67
2023/05/30 10:45:47;;;;;;;4.53;1.90;;;17.80;99.90;;;;;;5007135;28;20034;-69
2023/05/30 10:48:22;;;;;;;;;;;17.90;99.90;;;;;;4969082;28;20518;-68
2023/05/30 10:50:50;;;;;;;4.90;2.08;;;18.00;99.90;;;;;;5005831;28;20412;-68
2023/05/30 10:53:20;;;;;;;5.53;2.08;;;18.10;99.90;;;;;;4993030;28;20113;-68
2023/05/30 10:55:49;;;;;;;3.30;1.52;;;18.10;99.90;;;;;;4996326;28;20023;-69
2023/05/30 10:58:35;;;;;;;2.55;1.98;;;18.00;99.90;;;;;;4987446;28;20046;-67
2023/05/30 11:01:27;;;;;;;6.53;2.33;;;17.90;99.90;;;;;;4995103;28;20114;-68
2023/05/30 11:04:08;;;;;;;3.53;2.25;;;17.50;99.90;;;;;;4982772;28;20023;-73
2023/05/30 11:06:45;;;;;;;5.75;1.60;;;17.10;99.90;;;;;;4995996;28;20541;-72
2023/05/30 11:09:14;;;;;;;6.55;2.13;;;17.00;99.90;;;;;;4995057;28;20410;-72
2023/05/30 11:11:41;;;;;;;6.68;1.83;;;17.00;99.90;;;;;;4995728;28;20030;-70
2023/05/30 11:14:08;;;;;;;5.53;2.03;;;17.10;99.90;;;;;;4996011;28;20450;-70
2023/05/30 11:16:55;;;;;;;4.45;1.77;;;17.30;99.90;;;;;;4995773;28;20427;-71
2023/05/30 11:19:47;;;;;;;7.82;1.85;;;17.20;99.90;;;;;;4990164;28;20476;-70
2023/05/30 11:22:12;;;;;;;6.10;1.70;;;17.10;99.90;;;;;;4979997;28;20082;-72
2023/05/30 11:24:40;;;;;;;7.53;1.95;;;17.10;99.90;;;;;;5010586;28;20395;-71
2023/05/30 11:27:10;;;;;;;3.10;1.92;;;16.50;99.90;;;;;;4993409;28;20040;-72
2023/05/30 11:29:47;;;;;;;7.65;2.38;;;16.30;99.90;;;;;;4995372;28;20026;-71
2023/05/30 11:32:24;;;;;;;9.20;2.20;;;16.30;99.90;;;;;;4995583;28;20041;-73
2023/05/30 11:34:58;;;;;;;4.72;1.92;;;16.10;99.90;;;;;;4995565;28;20044;-72
2023/05/30 11:37:24;;;;;;;5.13;1.90;;;15.90;99.90;;;;;;4994624;28;20049;-70
2023/05/30 11:39:57;;;;;;;6.18;2.30;;;15.80;99.90;;;;;;5007624;28;20038;-72
2023/05/30 11:42:24;;;;;;;3.97;1.85;;;15.70;99.90;;;;;;5006996;28;20422;-70
2023/05/30 11:44:50;;;;;;;1.92;1.83;;;15.60;99.90;;;;;;5010855;28;20046;-71
2023/05/30 11:47:18;;;;;;;3.17;1.88;;;15.60;99.90;;;;;;5023932;28;20117;-70
2023/05/30 11:49:48;;;;;;;6.35;1.48;;;15.60;99.90;;;;;;5017287;28;20506;-71
2023/05/30 11:52:38;;;;;;;5.25;1.88;;;15.60;99.90;;;;;;5010554;28;20529;-70
2023/05/30 11:55:05;;;;;;;2.20;1.63;;;15.70;99.90;;;;;;5011760;28;20029;-69
2023/05/30 11:57:32;;;;;;;4.35;1.98;;;15.80;99.90;;;;;;5011942;28;20073;-70
2023/05/30 11:59:58;;;;;;;5.07;1.33;;;15.70;99.90;;;;;;5012603;28;20038;-69
2023/05/30 12:02:27;;;;;;;4.32;2.25;;;15.70;99.90;;;;;;4985646;28;20045;-70
2023/05/30 12:05:01;;;;;;;3.72;2.08;;;15.70;99.90;;;;;;5003304;28;20070;-70
2023/05/30 12:07:27;;;;;;;4.50;1.83;;;15.70;99.90;;;;;;5005746;28;20068;-70
2023/05/30 12:09:53;;;;;;;2.42;1.77;;;15.60;99.90;;;;;;5008030;28;20038;-71
2023/05/30 12:12:18;;;;;;;3.50;1.95;;;15.40;99.90;;;;;;5007427;28;20034;-71
2023/05/30 12:14:44;;;;;;;2.72;1.90;;;15.30;99.90;;;;;;5007086;28;20109;-70
2023/05/30 12:17:16;;;;;;;7.20;2.60;;;15.20;99.90;;;;;;4989687;28;20050;-70
2023/05/30 12:19:43;;;;;;;3.40;2.00;;;15.30;99.90;;;;;;4983442;28;20022;-71
2023/05/30 12:22:11;;;;;;;1.75;1.50;;;15.20;99.90;;;;;;4996003;28;20088;-69
2023/05/30 12:24:37;;;;;;;;;;;15.30;99.90;;;;;;4994442;28;20407;-70
2023/05/30 12:27:05;;;;;;;3.45;1.80;;;15.50;99.90;;;;;;4994090;28;19909;-72
2023/05/30 12:29:32;;;;;;;2.78;1.90;;;15.50;99.90;;;;;;4992993;28;20022;-71
2023/05/30 12:31:58;;;;;;;2.75;1.67;;;15.50;99.90;;;;;;4991939;28;20123;-70
2023/05/30 12:34:24;;;;;;;2.00;1.35;;;15.60;99.90;;;;;;4991262;28;20105;-70
2023/05/30 12:36:55;;;;;;;3.58;2.15;;;15.70;99.90;;;;;;4992761;28;20117;-71
2023/05/30 12:39:21;;;;;;;4.85;1.58;;;15.70;99.90;;;;;;4992354;28;20072;-73
2023/05/30 12:41:47;;;;;;;4.68;1.80;;;15.70;99.90;;;;;;4994228;28;20113;-72
2023/05/30 12:44:18;;;;;;;3.60;1.70;;;15.60;99.90;;;;;;4992640;28;20027;-73
2023/05/30 12:46:43;;;;;;;3.35;2.03;;;15.50;99.90;;;;;;4994532;28;20101;-69
2023/05/30 12:49:09;;;;;;;2.10;1.52;;;15.30;99.90;;;;;;4992960;28;20109;-72